Time;durP1;ratioP1;P1;durP2;ratioP2;P2;SDS_P1;SDS_P2;PMS_P1;PMS_P2;Temp;Humidity;BMP_temperature;BMP_pressure;BME280_temperature;BME280_humidity;BME280_pressure;Samples;Min_cycle;Max_cycle;Signal;HPM_P1;HPM_P2
2023/10/23 00:01:56;;;;;;;59.42;15.98;;;7.20;99.90;;;;;;4990036;28;20049;-58
2023/10/23 00:04:23;;;;;;;42.00;16.15;;;7.10;99.90;;;;;;4974555;28;20043;-58
2023/10/23 00:06:51;;;;;;;134.23;19.55;;;7.10;99.90;;;;;;4974396;28;20049;-58
2023/10/23 00:09:20;;;;;;;110.38;18.80;;;7.10;99.90;;;;;;4973673;28;20406;-58
2023/10/23 00:11:48;;;;;;;129.25;19.52;;;7.10;99.90;;;;;;4984097;28;20499;-56
2023/10/23 00:14:15;;;;;;;89.05;18.25;;;7.20;99.90;;;;;;4989413;28;20046;-56
2023/10/23 00:16:43;;;;;;;58.20;17.95;;;7.20;99.90;;;;;;4986351;28;20394;-58
2023/10/23 00:19:11;;;;;;;132.35;18.90;;;7.20;99.90;;;;;;4986963;28;20058;-57
2023/10/23 00:21:38;;;;;;;91.95;16.95;;;7.20;99.90;;;;;;4979009;28;20053;-57
2023/10/23 00:24:06;;;;;;;176.23;20.77;;;7.20;99.90;;;;;;4981527;28;20050;-58
2023/10/23 00:26:34;;;;;;;112.97;18.35;;;7.20;99.90;;;;;;4970836;28;20043;-57
2023/10/23 00:29:02;;;;;;;110.80;18.75;;;7.20;99.90;;;;;;4969081;28;20259;-56
2023/10/23 00:31:30;;;;;;;153.73;18.98;;;7.20;99.90;;;;;;4985029;28;20050;-57
2023/10/23 00:33:57;;;;;;;157.75;22.45;;;7.20;99.90;;;;;;4983139;28;20045;-57
2023/10/23 00:36:25;;;;;;;65.85;17.90;;;7.10;99.90;;;;;;4979321;28;20042;-58
2023/10/23 00:38:53;;;;;;;80.57;16.35;;;7.10;99.90;;;;;;4977648;28;20038;-58
2023/10/23 00:41:20;;;;;;;87.30;16.08;;;7.10;99.90;;;;;;4981111;28;20038;-58
2023/10/23 00:43:48;;;;;;;48.50;16.48;;;7.00;99.90;;;;;;4976510;28;20038;-56
2023/10/23 00:46:20;;;;;;;76.07;16.73;;;7.00;99.90;;;;;;4978544;28;20051;-56
2023/10/23 00:48:49;;;;;;;63.60;16.13;;;6.90;99.90;;;;;;4982295;28;20050;-57
2023/10/23 00:51:19;;;;;;;74.35;15.43;;;6.90;99.90;;;;;;4986089;28;20057;-56
2023/10/23 00:53:51;;;;;;;44.15;15.05;;;6.80;99.90;;;;;;4988986;28;20057;-57
2023/10/23 00:56:19;;;;;;;40.85;13.65;;;6.80;99.90;;;;;;4987940;28;20042;-58
2023/10/23 00:58:47;;;;;;;43.70;15.18;;;6.70;99.90;;;;;;4988172;28;20057;-58
2023/10/23 01:01:16;;;;;;;27.15;13.57;;;6.70;99.90;;;;;;4987161;28;20074;-59
2023/10/23 01:03:44;;;;;;;32.97;13.73;;;6.60;99.90;;;;;;4975633;28;20410;-60
2023/10/23 01:06:14;;;;;;;29.25;13.20;;;6.60;99.90;;;;;;4980145;28;20081;-58
2023/10/23 01:08:42;;;;;;;32.20;12.50;;;6.50;99.90;;;;;;4977190;28;20054;-58
2023/10/23 01:11:10;;;;;;;27.13;11.60;;;6.40;99.90;;;;;;4977048;28;20051;-58
2023/10/23 01:13:38;;;;;;;25.73;11.23;;;6.40;99.90;;;;;;4985607;28;20565;-58
2023/10/23 01:16:07;;;;;;;30.60;11.93;;;6.30;99.90;;;;;;4987968;28;20046;-58
2023/10/23 01:18:35;;;;;;;34.03;13.20;;;6.30;99.90;;;;;;4980432;28;20054;-57
2023/10/23 01:21:02;;;;;;;33.05;15.23;;;6.20;99.90;;;;;;4977354;28;20042;-58
2023/10/23 01:23:35;;;;;;;38.08;15.63;;;6.10;99.90;;;;;;4995599;28;20462;-59
2023/10/23 01:26:03;;;;;;;34.67;15.30;;;6.10;99.90;;;;;;4970192;28;20050;-58
2023/10/23 01:28:30;;;;;;;28.90;14.43;;;6.10;99.90;;;;;;4968101;28;20050;-58
2023/10/23 01:30:59;;;;;;;31.02;11.82;;;6.00;99.90;;;;;;4969635;28;20042;-58
2023/10/23 01:33:27;;;;;;;24.52;12.95;;;6.00;99.90;;;;;;4989451;28;20410;-58
2023/10/23 01:35:55;;;;;;;40.03;13.15;;;5.90;99.90;;;;;;4988756;28;20407;-57
2023/10/23 01:38:23;;;;;;;55.10;13.85;;;5.90;99.90;;;;;;4988841;28;20061;-58
2023/10/23 01:40:51;;;;;;;42.72;12.70;;;5.90;99.90;;;;;;4989928;28;20050;-57
2023/10/23 01:43:18;;;;;;;46.92;13.80;;;5.90;99.90;;;;;;4973768;28;20046;-59
2023/10/23 01:45:46;;;;;;;60.13;15.73;;;5.90;99.90;;;;;;4968416;28;20054;-59
2023/10/23 01:48:14;;;;;;;42.95;15.90;;;5.80;99.90;;;;;;4972102;28;20042;-59
2023/10/23 01:50:41;;;;;;;47.65;15.05;;;5.80;99.90;;;;;;4988297;28;20080;-59
2023/10/23 01:53:09;;;;;;;35.47;14.57;;;5.80;99.90;;;;;;4990464;28;20050;-60
2023/10/23 01:55:37;;;;;;;86.80;16.55;;;5.80;99.90;;;;;;4990316;28;20405;-60
2023/10/23 01:58:05;;;;;;;144.25;17.65;;;5.80;99.90;;;;;;4989974;28;20046;-60
2023/10/23 02:00:32;;;;;;;60.80;15.52;;;5.80;99.90;;;;;;4990920;28;20476;-59
2023/10/23 02:03:00;;;;;;;32.00;13.75;;;5.70;99.90;;;;;;4988454;28;20046;-59
2023/10/23 02:05:28;;;;;;;30.42;13.43;;;5.80;99.90;;;;;;4987363;28;20043;-59
2023/10/23 02:07:56;;;;;;;36.50;14.15;;;5.70;99.90;;;;;;4981097;28;20057;-60
2023/10/23 02:10:23;;;;;;;45.65;13.98;;;5.80;99.90;;;;;;4981073;28;20062;-59
2023/10/23 02:12:51;;;;;;;31.88;12.50;;;5.80;99.90;;;;;;4991574;28;20053;-59
2023/10/23 02:15:18;;;;;;;52.13;14.85;;;5.80;99.90;;;;;;4991002;28;20422;-59
2023/10/23 02:17:47;;;;;;;92.63;16.27;;;5.80;99.90;;;;;;4991419;28;20043;-59
2023/10/23 02:20:15;;;;;;;56.50;15.20;;;5.80;99.90;;;;;;4990712;28;20061;-59
2023/10/23 02:22:43;;;;;;;38.47;12.27;;;5.80;99.90;;;;;;4990565;28;20049;-59
2023/10/23 02:25:11;;;;;;;41.22;12.55;;;5.80;99.90;;;;;;4991395;28;20050;-58
2023/10/23 02:27:39;;;;;;;56.25;11.82;;;5.80;99.90;;;;;;4989236;28;20054;-60
2023/10/23 02:30:07;;;;;;;45.60;13.13;;;5.80;99.90;;;;;;4974848;28;20062;-60
2023/10/23 02:32:34;;;;;;;46.63;13.38;;;5.80;99.90;;;;;;4971912;28;20522;-60
2023/10/23 02:35:03;;;;;;;41.85;12.75;;;5.80;99.90;;;;;;4985203;28;20061;-59
2023/10/23 02:37:31;;;;;;;34.20;12.43;;;5.80;99.90;;;;;;4987277;28;20058;-59
2023/10/23 02:39:58;;;;;;;34.67;10.90;;;5.80;99.90;;;;;;4982164;28;20042;-60
2023/10/23 02:42:26;;;;;;;36.30;11.20;;;5.80;99.90;;;;;;4982267;28;20061;-59
2023/10/23 02:44:54;;;;;;;32.78;11.48;;;5.80;99.90;;;;;;4977821;28;20035;-59
2023/10/23 02:47:21;;;;;;;21.63;9.85;;;5.80;99.90;;;;;;4979831;28;20511;-59
2023/10/23 02:49:52;;;;;;;28.58;10.70;;;5.80;99.90;;;;;;4994695;28;20453;-59
2023/10/23 02:52:20;;;;;;;33.40;10.63;;;5.80;99.90;;;;;;4994829;28;20043;-60
2023/10/23 02:54:50;;;;;;;19.83;9.13;;;5.80;99.90;;;;;;4993424;28;20050;-60
2023/10/23 02:57:18;;;;;;;30.75;9.98;;;5.70;99.90;;;;;;4992820;28;20491;-59
2023/10/23 02:59:48;;;;;;;29.52;10.25;;;5.80;99.90;;;;;;4993766;28;20057;-59
2023/10/23 03:02:19;;;;;;;28.48;9.23;;;5.70;99.90;;;;;;4994238;28;20049;-58
2023/10/23 03:04:47;;;;;;;24.95;10.18;;;5.70;99.90;;;;;;4993582;28;20061;-58
2023/10/23 03:07:14;;;;;;;49.03;11.23;;;5.70;99.90;;;;;;4993468;28;20069;-58
2023/10/23 03:09:43;;;;;;;37.22;10.10;;;5.70;99.90;;;;;;4993377;28;20058;-59
2023/10/23 03:12:10;;;;;;;46.40;9.85;;;5.70;99.90;;;;;;4993283;28;20046;-58
2023/10/23 03:14:38;;;;;;;74.68;10.43;;;5.70;99.90;;;;;;4992462;28;20054;-60
2023/10/23 03:17:05;;;;;;;39.33;9.52;;;5.60;99.90;;;;;;4994323;28;20054;-59
2023/10/23 03:19:34;;;;;;;68.72;10.55;;;5.60;99.90;;;;;;4993338;28;20124;-59
2023/10/23 03:22:02;;;;;;;29.48;9.20;;;5.60;99.90;;;;;;4988977;28;20046;-59
2023/10/23 03:24:30;;;;;;;28.35;9.25;;;5.60;99.90;;;;;;4982446;28;20068;-59
2023/10/23 03:26:58;;;;;;;19.35;9.07;;;5.60;99.90;;;;;;4994140;28;20422;-59
2023/10/23 03:29:25;;;;;;;23.15;9.45;;;5.50;99.90;;;;;;4993305;28;20057;-59
2023/10/23 03:31:53;;;;;;;19.85;9.68;;;5.50;99.90;;;;;;4992837;28;20051;-59
2023/10/23 03:34:25;;;;;;;15.55;8.02;;;5.40;99.90;;;;;;4992875;28;20510;-60
2023/10/23 03:36:52;;;;;;;13.82;7.78;;;5.40;99.90;;;;;;4985067;28;20045;-59
2023/10/23 03:39:20;;;;;;;16.55;7.95;;;5.40;99.90;;;;;;4993941;28;20510;-59
2023/10/23 03:41:48;;;;;;;16.98;8.68;;;5.30;99.90;;;;;;4990030;28;20051;-59
2023/10/23 03:44:16;;;;;;;18.42;9.07;;;5.30;99.90;;;;;;4993509;28;20046;-58
2023/10/23 03:46:44;;;;;;;16.00;8.45;;;5.30;99.90;;;;;;4992139;28;20055;-60
2023/10/23 03:49:12;;;;;;;17.52;8.50;;;5.20;99.90;;;;;;4993477;28;20068;-59
2023/10/23 03:51:40;;;;;;;14.23;7.88;;;5.20;99.90;;;;;;4993693;28;20046;-59
2023/10/23 03:54:08;;;;;;;16.55;8.20;;;5.20;99.90;;;;;;4993680;28;20050;-60
2023/10/23 03:56:35;;;;;;;13.82;7.60;;;5.20;99.90;;;;;;4993508;28;20046;-59
2023/10/23 03:59:03;;;;;;;19.33;8.52;;;5.20;99.90;;;;;;4993580;28;20050;-59
2023/10/23 04:01:31;;;;;;;12.82;7.47;;;5.10;99.90;;;;;;4988365;28;20050;-59
2023/10/23 04:03:58;;;;;;;15.80;7.60;;;5.10;99.90;;;;;;4973846;28;20054;-60
2023/10/23 04:06:26;;;;;;;14.38;7.55;;;5.10;99.90;;;;;;4988301;28;20042;-60
2023/10/23 04:08:54;;;;;;;14.98;8.68;;;5.20;99.90;;;;;;4992534;28;20073;-57
2023/10/23 04:11:22;;;;;;;15.40;7.90;;;5.20;99.90;;;;;;4993085;28;20057;-57
2023/10/23 04:13:49;;;;;;;23.17;8.30;;;5.10;99.90;;;;;;4992232;28;20050;-58
2023/10/23 04:16:17;;;;;;;15.02;8.30;;;5.20;99.90;;;;;;4992495;28;20046;-59
2023/10/23 04:18:45;;;;;;;19.95;9.48;;;5.20;99.90;;;;;;4992918;28;20043;-59
2023/10/23 04:21:13;;;;;;;21.27;9.43;;;5.20;99.90;;;;;;4992013;28;20046;-60
2023/10/23 04:23:41;;;;;;;17.17;9.60;;;5.20;99.90;;;;;;4992863;28;20042;-59
2023/10/23 04:26:09;;;;;;;21.48;10.00;;;5.20;99.90;;;;;;4971542;28;20518;-60
2023/10/23 04:28:37;;;;;;;22.08;9.75;;;5.20;99.90;;;;;;4973696;28;20043;-60
2023/10/23 04:31:04;;;;;;;23.48;10.13;;;5.20;99.90;;;;;;4973568;28;20067;-60
2023/10/23 04:33:33;;;;;;;28.13;12.02;;;5.30;99.90;;;;;;4974468;28;20058;-59
2023/10/23 04:36:01;;;;;;;28.92;13.10;;;5.30;99.90;;;;;;4989018;28;20089;-58
2023/10/23 04:38:30;;;;;;;27.17;13.02;;;5.40;99.90;;;;;;4992795;28;20053;-59
2023/10/23 04:40:58;;;;;;;28.37;11.93;;;5.50;99.90;;;;;;4991363;28;20061;-59
2023/10/23 04:43:25;;;;;;;21.40;11.70;;;5.50;99.90;;;;;;4992451;28;20626;-60
2023/10/23 04:45:56;;;;;;;26.77;11.38;;;5.50;99.90;;;;;;4987571;28;20431;-60
2023/10/23 04:48:24;;;;;;;24.08;11.50;;;5.50;99.90;;;;;;4969393;28;20639;-60
2023/10/23 04:50:56;;;;;;;22.42;10.77;;;5.50;99.90;;;;;;4969596;28;20072;-60
2023/10/23 04:53:24;;;;;;;25.83;12.02;;;5.50;99.90;;;;;;4977671;28;20051;-59
2023/10/23 04:55:52;;;;;;;24.15;10.95;;;5.50;99.90;;;;;;4988596;28;20061;-60
2023/10/23 04:58:20;;;;;;;31.58;13.90;;;5.50;99.90;;;;;;4988693;28;20062;-60
2023/10/23 05:00:48;;;;;;;26.58;11.27;;;5.50;99.90;;;;;;4989507;28;20038;-59
2023/10/23 05:03:16;;;;;;;29.45;12.93;;;5.50;99.90;;;;;;4978703;28;20045;-59
2023/10/23 05:05:51;;;;;;;31.92;12.88;;;5.50;99.90;;;;;;4985394;28;20065;-60
2023/10/23 05:08:19;;;;;;;29.90;12.55;;;5.50;99.90;;;;;;4984162;28;20077;-59
2023/10/23 05:10:46;;;;;;;25.40;11.73;;;5.40;99.90;;;;;;4984583;28;20061;-59
2023/10/23 05:13:14;;;;;;;33.13;13.30;;;5.40;99.90;;;;;;4986133;28;20059;-60
2023/10/23 05:15:42;;;;;;;28.70;12.18;;;5.50;99.90;;;;;;4987990;28;20038;-60
2023/10/23 05:18:10;;;;;;;32.50;13.43;;;5.50;99.90;;;;;;4975706;28;20678;-59
2023/10/23 05:20:38;;;;;;;27.98;12.20;;;5.50;99.90;;;;;;4969549;28;20055;-60
2023/10/23 05:23:05;;;;;;;30.25;12.02;;;5.50;99.90;;;;;;4986954;28;20057;-59
2023/10/23 05:25:35;;;;;;;30.92;12.52;;;5.50;99.90;;;;;;4988996;28;20046;-58
2023/10/23 05:28:03;;;;;;;30.23;13.02;;;5.50;99.90;;;;;;4971100;28;20049;-58
2023/10/23 05:30:31;;;;;;;42.45;13.50;;;5.50;99.90;;;;;;4983521;28;20049;-58
2023/10/23 05:32:59;;;;;;;47.17;14.13;;;5.50;99.90;;;;;;4974630;28;20158;-59
2023/10/23 05:35:26;;;;;;;33.63;13.85;;;5.50;99.90;;;;;;4976373;28;20410;-60
2023/10/23 05:37:54;;;;;;;29.55;12.20;;;5.50;99.90;;;;;;4984757;28;20046;-59
2023/10/23 05:40:22;;;;;;;31.42;13.77;;;5.50;99.90;;;;;;4987952;28;20065;-60
2023/10/23 05:42:49;;;;;;;36.25;14.00;;;5.50;99.90;;;;;;4985004;28;20046;-59
2023/10/23 05:45:17;;;;;;;36.25;13.93;;;5.50;99.90;;;;;;4988659;28;20511;-59
2023/10/23 05:47:45;;;;;;;34.15;12.98;;;5.50;99.90;;;;;;4985977;28;20057;-59
2023/10/23 05:50:12;;;;;;;34.05;14.65;;;5.50;99.90;;;;;;4968952;28;20134;-60
2023/10/23 05:52:40;;;;;;;45.47;13.38;;;5.50;99.90;;;;;;4975766;28;20398;-59
2023/10/23 05:55:08;;;;;;;29.52;12.82;;;5.50;99.90;;;;;;4988450;28;20053;-58
2023/10/23 05:57:36;;;;;;;42.08;14.18;;;5.50;99.90;;;;;;4981152;28;20434;-58
2023/10/23 06:00:04;;;;;;;54.13;15.32;;;5.50;99.90;;;;;;4985298;28;20426;-59
2023/10/23 06:02:33;;;;;;;;;;;5.50;99.90;;;;;;4987697;28;20046;-58
2023/10/23 06:05:01;;;;;;;33.85;12.90;;;5.50;99.90;;;;;;4983055;28;20287;-58
2023/10/23 06:07:29;;;;;;;36.80;14.15;;;5.50;99.90;;;;;;4971403;28;20058;-57
2023/10/23 06:09:58;;;;;;;45.42;15.63;;;5.50;99.90;;;;;;4988236;28;20054;-58
2023/10/23 06:12:26;;;;;;;43.05;14.75;;;5.50;99.90;;;;;;4991932;28;20058;-59
2023/10/23 06:14:54;;;;;;;50.42;17.27;;;5.50;99.90;;;;;;4991343;28;20043;-62
2023/10/23 06:17:22;;;;;;;41.22;15.77;;;5.50;99.90;;;;;;4991880;28;20510;-60
2023/10/23 06:19:49;;;;;;;41.22;16.95;;;5.50;99.90;;;;;;4976782;28;20055;-60
2023/10/23 06:22:18;;;;;;;48.20;17.08;;;5.50;99.90;;;;;;4982687;28;20433;-59
2023/10/23 06:24:46;;;;;;;41.20;17.98;;;5.60;99.90;;;;;;4991128;28;20039;-60
2023/10/23 06:27:14;;;;;;;48.22;19.10;;;5.50;99.90;;;;;;4986546;28;20046;-59
2023/10/23 06:29:41;;;;;;;43.78;17.17;;;5.50;99.90;;;;;;4985947;28;20062;-59
2023/10/23 06:32:11;;;;;;;59.42;19.70;;;5.60;99.90;;;;;;4977995;28;20065;-58
2023/10/23 06:34:39;;;;;;;54.05;18.30;;;5.80;99.90;;;;;;4988101;28;20041;-59
2023/10/23 06:37:07;;;;;;;63.85;19.80;;;5.90;99.90;;;;;;4989555;28;20498;-58
2023/10/23 06:39:35;;;;;;;58.95;19.15;;;6.10;99.90;;;;;;4990046;28;20502;-58
2023/10/23 06:42:04;;;;;;;60.00;20.30;;;6.20;99.90;;;;;;4988646;28;20050;-57
2023/10/23 06:44:32;;;;;;;58.53;20.30;;;6.40;99.90;;;;;;4987780;28;20058;-58
2023/10/23 06:46:59;;;;;;;67.55;21.63;;;6.50;99.90;;;;;;4980961;28;20042;-60
2023/10/23 06:49:27;;;;;;;53.45;19.85;;;6.60;99.90;;;;;;4985409;28;20051;-60
2023/10/23 06:51:55;;;;;;;76.35;21.13;;;6.70;99.90;;;;;;4969430;28;20055;-59
2023/10/23 06:54:23;;;;;;;69.53;20.00;;;6.80;99.90;;;;;;4982413;28;20046;-59
2023/10/23 06:56:51;;;;;;;68.83;21.47;;;6.90;99.90;;;;;;4977310;28;20046;-59
2023/10/23 06:59:19;;;;;;;86.93;23.05;;;6.90;99.90;;;;;;4976854;28;20778;-59
2023/10/23 07:01:47;;;;;;;61.60;19.45;;;7.00;99.90;;;;;;4970096;28;20043;-58
2023/10/23 07:04:15;;;;;;;63.25;20.95;;;7.00;99.90;;;;;;4975885;28;20545;-58
2023/10/23 07:06:43;;;;;;;64.68;19.30;;;7.00;99.90;;;;;;4985085;28;20061;-58
2023/10/23 07:09:10;;;;;;;67.72;20.17;;;7.00;99.90;;;;;;4990895;28;20042;-59
2023/10/23 07:11:38;;;;;;;61.65;18.63;;;7.00;99.90;;;;;;4990015;28;20061;-58
2023/10/23 07:14:06;;;;;;;62.80;18.02;;;7.00;99.90;;;;;;4979584;28;20046;-58
2023/10/23 07:16:33;;;;;;;56.65;17.45;;;7.00;99.90;;;;;;4986613;28;20035;-57
2023/10/23 07:19:04;;;;;;;63.72;18.38;;;7.00;99.90;;;;;;4988865;28;20402;-58
2023/10/23 07:21:33;;;;;;;63.67;17.35;;;7.00;99.90;;;;;;4969378;28;20058;-57
2023/10/23 07:24:00;;;;;;;67.70;17.75;;;7.10;99.90;;;;;;4984294;28;20046;-58
2023/10/23 07:26:28;;;;;;;58.53;17.58;;;7.10;99.90;;;;;;4976374;28;20596;-58
2023/10/23 07:28:56;;;;;;;56.92;16.05;;;7.10;99.90;;;;;;4987402;28;20076;-58
2023/10/23 07:31:23;;;;;;;54.50;15.18;;;7.10;99.90;;;;;;4986551;28;20057;-58
2023/10/23 07:33:51;;;;;;;49.88;15.35;;;7.20;99.90;;;;;;4982304;28;20054;-58
2023/10/23 07:36:19;;;;;;;45.13;14.95;;;7.30;99.90;;;;;;4989173;28;20061;-58
2023/10/23 07:38:46;;;;;;;48.65;15.88;;;7.40;99.90;;;;;;4960147;28;20058;-59
2023/10/23 07:41:14;;;;;;;46.35;15.82;;;7.40;99.90;;;;;;4971048;28;20051;-58
2023/10/23 07:43:43;;;;;;;50.30;16.40;;;7.50;99.90;;;;;;4985215;28;20050;-60
2023/10/23 07:46:11;;;;;;;43.58;14.88;;;7.50;99.90;;;;;;4979203;28;20054;-57
2023/10/23 07:48:45;;;;;;;52.78;17.60;;;7.60;99.90;;;;;;4982320;28;20054;-59
2023/10/23 07:51:14;;;;;;;56.00;17.08;;;7.60;99.90;;;;;;4984045;28;20056;-58
2023/10/23 07:53:42;;;;;;;46.30;14.93;;;7.60;99.90;;;;;;4990107;28;20050;-58
2023/10/23 07:56:12;;;;;;;57.63;15.75;;;7.70;99.90;;;;;;4988408;28;20418;-58
2023/10/23 07:58:40;;;;;;;49.88;15.43;;;7.70;99.90;;;;;;4990083;28;20490;-59
2023/10/23 08:01:14;;;;;;;51.28;16.38;;;7.70;99.90;;;;;;4988374;28;20513;-59
2023/10/23 08:03:42;;;;;;;52.17;16.17;;;7.80;99.90;;;;;;4975785;28;20696;-59
2023/10/23 08:06:10;;;;;;;54.05;17.02;;;7.80;99.90;;;;;;4974882;28;20047;-58
2023/10/23 08:08:40;;;;;;;48.75;15.02;;;7.90;99.90;;;;;;4971043;28;20046;-59
2023/10/23 08:11:09;;;;;;;48.43;17.03;;;8.00;99.90;;;;;;4969504;28;20059;-59
2023/10/23 08:13:38;;;;;;;52.47;17.45;;;8.00;99.90;;;;;;4983007;28;20664;-59
2023/10/23 08:16:05;;;;;;;49.55;16.30;;;8.00;99.90;;;;;;4981938;28;20053;-59
2023/10/23 08:18:34;;;;;;;48.17;18.23;;;8.10;99.90;;;;;;4972453;28;20419;-58
2023/10/23 08:21:12;;;;;;;48.28;17.15;;;8.20;99.90;;;;;;4975276;28;20395;-58
2023/10/23 08:23:44;;;;;;;44.90;17.30;;;8.20;99.90;;;;;;4980864;28;20062;-59
2023/10/23 08:26:12;;;;;;;42.33;15.15;;;8.30;99.90;;;;;;4977851;28;20038;-58
2023/10/23 08:28:40;;;;;;;45.13;15.70;;;8.40;99.90;;;;;;4984781;28;20050;-59
2023/10/23 08:31:11;;;;;;;40.47;15.18;;;8.40;99.90;;;;;;4978293;28;20043;-58
2023/10/23 08:33:58;;;;;;;39.50;15.07;;;8.50;99.90;;;;;;4975385;28;20410;-59
2023/10/23 08:36:26;;;;;;;38.85;14.45;;;8.60;99.90;;;;;;4975560;28;20430;-59
2023/10/23 08:38:54;;;;;;;38.95;14.45;;;8.60;99.90;;;;;;4982979;28;20050;-59
2023/10/23 08:41:22;;;;;;;34.85;12.73;;;8.70;99.90;;;;;;4969820;28;20087;-59
2023/10/23 08:43:50;;;;;;;34.33;13.05;;;8.80;99.90;;;;;;4971746;28;20527;-58
2023/10/23 08:46:18;;;;;;;26.38;10.38;;;8.80;99.90;;;;;;4981106;28;20046;-58
2023/10/23 08:48:45;;;;;;;27.40;10.27;;;8.90;99.90;;;;;;4975736;28;20490;-58
2023/10/23 08:51:14;;;;;;;22.88;10.48;;;9.00;99.90;;;;;;4971028;28;20050;-57
2023/10/23 08:53:50;;;;;;;22.40;8.10;;;9.10;99.90;;;;;;4978884;28;20055;-58
2023/10/23 08:56:22;;;;;;;17.75;7.70;;;9.10;99.90;;;;;;4977380;28;20297;-57
2023/10/23 08:58:57;;;;;;;18.25;7.38;;;9.20;99.90;;;;;;4973123;28;20054;-56
2023/10/23 09:01:27;;;;;;;18.98;7.50;;;9.30;99.90;;;;;;4974050;28;20057;-57
2023/10/23 09:03:56;;;;;;;22.00;7.28;;;9.30;99.90;;;;;;4976438;28;20046;-57
2023/10/23 09:06:32;;;;;;;23.00;7.97;;;9.40;99.90;;;;;;4983686;28;20051;-57
2023/10/23 09:09:00;;;;;;;17.30;6.82;;;9.50;99.90;;;;;;4980597;28;20499;-58
2023/10/23 09:11:43;;;;;;;16.00;6.35;;;9.60;99.90;;;;;;4980097;28;20050;-58
2023/10/23 09:14:23;;;;;;;15.35;6.38;;;9.60;99.90;;;;;;4983640;28;20062;-58
2023/10/23 09:16:53;;;;;;;14.75;5.45;;;9.70;99.90;;;;;;4973217;28;20113;-58
2023/10/23 09:19:34;;;;;;;21.45;5.63;;;9.80;99.90;;;;;;4987924;28;20557;-58
2023/10/23 09:22:10;;;;;;;22.45;6.15;;;9.80;99.90;;;;;;4969832;28;20526;-57
2023/10/23 09:24:38;;;;;;;20.58;6.30;;;9.90;99.90;;;;;;4983058;28;20065;-58
2023/10/23 09:27:06;;;;;;;13.57;5.70;;;9.90;99.90;;;;;;4986267;28;20054;-58
2023/10/23 09:29:34;;;;;;;17.88;6.18;;;10.00;99.90;;;;;;4977794;28;20568;-58
2023/10/23 09:32:04;;;;;;;19.17;7.00;;;10.10;99.90;;;;;;4983333;28;20042;-57
2023/10/23 09:34:33;;;;;;;;;;;10.10;99.90;;;;;;4977089;28;20042;-56
2023/10/23 09:37:01;;;;;;;17.45;5.47;;;10.20;99.90;;;;;;4980767;28;19993;-58
2023/10/23 09:39:29;;;;;;;17.73;5.32;;;10.30;99.90;;;;;;4976852;28;20054;-58
2023/10/23 09:41:56;;;;;;;15.60;5.50;;;10.30;99.90;;;;;;4987424;28;20506;-57
2023/10/23 09:44:26;;;;;;;12.00;5.18;;;10.40;99.90;;;;;;4985244;28;20050;-57
2023/10/23 09:46:58;;;;;;;12.98;5.00;;;10.40;99.90;;;;;;4984161;28;20046;-57
2023/10/23 09:49:28;;;;;;;15.85;5.85;;;10.50;99.90;;;;;;4973057;28;20502;-58
2023/10/23 09:52:00;;;;;;;16.20;5.07;;;10.50;99.90;;;;;;4985846;28;20050;-57
2023/10/23 09:54:30;;;;;;;18.98;5.57;;;10.60;99.90;;;;;;4971312;28;20039;-57
2023/10/23 09:57:03;;;;;;;17.73;5.47;;;10.60;99.90;;;;;;4975169;28;20658;-58
2023/10/23 09:59:48;;;;;;;18.33;5.38;;;10.70;99.90;;;;;;4980220;28;20062;-58
2023/10/23 10:02:19;;;;;;;14.00;5.55;;;10.90;99.90;;;;;;4987264;28;20054;-58
2023/10/23 10:05:09;;;;;;;12.35;5.13;;;11.00;99.90;;;;;;4977913;28;20057;-58
2023/10/23 10:07:45;;;;;;;14.75;5.50;;;11.10;99.90;;;;;;4985013;28;20533;-57
2023/10/23 10:10:14;;;;;;;14.43;4.43;;;11.20;99.90;;;;;;4991242;28;20058;-58
2023/10/23 10:12:42;;;;;;;18.45;4.55;;;11.40;99.90;;;;;;4985798;28;20057;-58
2023/10/23 10:15:11;;;;;;;14.85;4.43;;;11.50;99.90;;;;;;4969405;28;20490;-58
2023/10/23 10:17:40;;;;;;;10.68;3.72;;;11.60;99.90;;;;;;4982409;28;20050;-58
2023/10/23 10:20:11;;;;;;;12.05;5.35;;;11.70;99.90;;;;;;4978471;28;20491;-57
2023/10/23 10:22:41;;;;;;;14.35;4.15;;;11.70;99.90;;;;;;4991294;28;20042;-58
2023/10/23 10:25:11;;;;;;;14.30;4.72;;;11.80;99.90;;;;;;4991649;28;20061;-58
2023/10/23 10:27:39;;;;;;;;;;;11.80;99.90;;;;;;4990548;28;20061;-58
2023/10/23 10:30:46;;;;;;;13.32;4.43;;;11.80;99.90;;;;;;4973199;28;19926;-58
2023/10/23 10:33:30;;;;;;;19.52;4.85;;;11.80;99.90;;;;;;4984525;28;20478;-58
2023/10/23 10:36:19;;;;;;;14.70;4.57;;;11.80;99.90;;;;;;4978652;28;20039;-59
2023/10/23 10:39:07;;;;;;;16.95;4.30;;;11.80;99.90;;;;;;4977083;28;20062;-58
2023/10/23 10:41:40;;;;;;;12.30;4.03;;;11.90;99.90;;;;;;4972403;28;20053;-57
2023/10/23 10:44:12;;;;;;;11.80;4.03;;;11.90;99.90;;;;;;4980847;28;20057;-58
2023/10/23 10:46:41;;;;;;;18.40;4.50;;;11.90;99.90;;;;;;4991351;28;20046;-59
2023/10/23 10:49:10;;;;;;;21.88;5.45;;;12.00;99.90;;;;;;4985646;28;20050;-58
2023/10/23 10:51:38;;;;;;;17.58;5.00;;;12.10;99.90;;;;;;4974556;28;20070;-58
2023/10/23 10:54:07;;;;;;;19.70;4.68;;;12.10;99.90;;;;;;4982582;28;20059;-59
2023/10/23 10:56:35;;;;;;;15.18;5.47;;;12.20;99.90;;;;;;4981567;28;20049;-59
2023/10/23 10:59:04;;;;;;;13.10;3.88;;;12.30;99.90;;;;;;4986466;28;20487;-58
2023/10/23 11:01:32;;;;;;;14.75;5.00;;;12.30;99.90;;;;;;4978540;28;20049;-58
2023/10/23 11:04:01;;;;;;;15.75;4.00;;;12.30;99.90;;;;;;4990933;28;20054;-60
2023/10/23 11:06:29;;;;;;;14.27;4.50;;;12.40;99.90;;;;;;4977458;28;20042;-60
2023/10/23 11:08:58;;;;;;;18.02;4.50;;;12.40;99.90;;;;;;4984150;28;20046;-57
2023/10/23 11:11:27;;;;;;;14.95;5.38;;;12.50;99.90;;;;;;4987956;28;20506;-57
2023/10/23 11:13:58;;;;;;;10.38;4.00;;;12.60;99.90;;;;;;4981888;28;20964;-58
2023/10/23 11:16:30;;;;;;;14.15;3.90;;;12.70;99.90;;;;;;4974357;28;20050;-58
2023/10/23 11:18:58;;;;;;;10.45;3.90;;;12.90;99.90;;;;;;4988956;28;20051;-58
2023/10/23 11:21:25;;;;;;;8.70;3.85;;;13.00;99.90;;;;;;4986556;28;20048;-58
2023/10/23 11:23:55;;;;;;;11.85;3.67;;;13.20;99.90;;;;;;4985989;28;20046;-58
2023/10/23 11:26:24;;;;;;;;;;;13.40;99.90;;;;;;4991109;28;20454;-58
2023/10/23 11:28:51;;;;;;;14.23;4.15;;;13.60;99.90;;;;;;4990569;28;19926;-59
2023/10/23 11:31:21;;;;;;;13.68;3.53;;;13.80;99.90;;;;;;4990784;28;20045;-58
2023/10/23 11:33:54;;;;;;;14.30;3.53;;;13.90;99.90;;;;;;4987830;28;20054;-58
2023/10/23 11:36:22;;;;;;;13.00;3.83;;;14.10;99.90;;;;;;4983711;28;20047;-58
2023/10/23 11:38:50;;;;;;;15.77;3.60;;;14.30;99.90;;;;;;4977672;28;20058;-58
2023/10/23 11:41:20;;;;;;;14.70;3.45;;;14.40;99.90;;;;;;4990437;28;20057;-57
2023/10/23 11:43:48;;;;;;;12.10;3.85;;;14.50;99.90;;;;;;4985757;28;20054;-57
2023/10/23 11:46:16;;;;;;;12.07;3.08;;;14.60;99.90;;;;;;4990692;28;20045;-58
2023/10/23 11:48:46;;;;;;;9.18;2.90;;;14.60;99.90;;;;;;4990244;28;20050;-58
2023/10/23 11:51:14;;;;;;;10.30;3.42;;;14.70;99.90;;;;;;4968988;28;20047;-58
2023/10/23 11:53:42;;;;;;;11.88;3.10;;;14.60;99.90;;;;;;4972014;28;20499;-58
2023/10/23 11:56:10;;;;;;;10.18;3.03;;;14.60;99.90;;;;;;4968823;28;20046;-58
2023/10/23 11:58:37;;;;;;;9.02;3.03;;;14.60;99.90;;;;;;4979877;28;20047;-58
2023/10/23 12:01:05;;;;;;;12.07;2.92;;;14.60;99.90;;;;;;4966392;28;20435;-57
2023/10/23 12:03:33;;;;;;;11.50;3.05;;;14.60;99.90;;;;;;4973735;28;20049;-59
2023/10/23 12:06:03;;;;;;;15.48;3.50;;;14.50;99.90;;;;;;4975409;28;20038;-59
2023/10/23 12:08:31;;;;;;;15.45;3.28;;;14.40;99.90;;;;;;4976289;28;20045;-58
2023/10/23 12:10:59;;;;;;;9.60;3.28;;;14.30;99.90;;;;;;4973559;28;20046;-58
2023/10/23 12:13:27;;;;;;;9.75;2.85;;;14.20;99.90;;;;;;4976921;28;20047;-59
2023/10/23 12:15:55;;;;;;;18.15;4.47;;;14.30;99.90;;;;;;4977325;28;20054;-59
2023/10/23 12:18:23;;;;;;;13.25;3.63;;;14.30;99.90;;;;;;4978227;28;20042;-59
2023/10/23 12:20:51;;;;;;;14.95;3.60;;;14.30;99.90;;;;;;4975995;28;20054;-59
2023/10/23 12:23:19;;;;;;;9.10;3.63;;;14.40;99.90;;;;;;4978887;28;20505;-58
2023/10/23 12:25:46;;;;;;;9.32;3.33;;;14.50;99.90;;;;;;4988468;28;20421;-58
2023/10/23 12:28:14;;;;;;;12.20;2.90;;;14.50;99.90;;;;;;4989387;28;20061;-60
2023/10/23 12:30:42;;;;;;;10.07;3.38;;;14.50;99.90;;;;;;4978855;28;20067;-59
2023/10/23 12:33:10;;;;;;;9.35;2.80;;;14.60;99.90;;;;;;4974264;28;20051;-61
2023/10/23 12:35:50;;;;;;;10.07;3.13;;;14.60;99.90;;;;;;4969758;28;20058;-58
2023/10/23 12:38:18;;;;;;;7.85;2.55;;;14.60;99.90;;;;;;4977058;28;20050;-58
2023/10/23 12:40:48;;;;;;;14.38;2.95;;;14.60;99.90;;;;;;4963852;28;20054;-58
2023/10/23 12:43:16;;;;;;;;;;;14.60;99.90;;;;;;4979364;28;20391;-59
2023/10/23 12:45:44;;;;;;;11.63;2.50;;;14.50;99.90;;;;;;4969644;28;19929;-59
2023/10/23 12:48:12;;;;;;;12.15;2.60;;;14.50;99.90;;;;;;4977934;28;20047;-60
2023/10/23 12:50:40;;;;;;;8.57;2.67;;;14.50;99.90;;;;;;4983296;28;20505;-59